Time;durP1;ratioP1;P1;durP2;ratioP2;P2;SDS_P1;SDS_P2;PMS_P1;PMS_P2;Temp;Humidity;BMP_temperature;BMP_pressure;BME280_temperature;BME280_humidity;BME280_pressure;Samples;Min_cycle;Max_cycle;Signal;HPM_P1;HPM_P2
2021/03/29 00:00:49;;;;;;;4.28;1.50;;;;;;;8.05;61.30;101896.25;5011544;28;20038;-71
2021/03/29 00:03:15;;;;;;;2.72;0.98;;;;;;;8.12;59.35;101899.31;5011308;28;20076;-71
2021/03/29 00:05:40;;;;;;;4.35;1.50;;;;;;;8.18;59.49;101896.28;4993879;28;20498;-70
2021/03/29 00:08:16;;;;;;;2.95;1.05;;;;;;;8.17;60.13;101897.22;5010539;28;20494;-70
2021/03/29 00:10:44;;;;;;;2.42;1.35;;;;;;;8.21;59.24;101904.81;5011825;28;20498;-71
2021/03/29 00:13:11;;;;;;;2.53;1.30;;;;;;;8.22;59.42;101905.66;5002625;28;20042;-70
2021/03/29 00:15:40;;;;;;;3.92;1.60;;;;;;;8.23;60.68;101899.47;5010915;28;20437;-70
2021/03/29 00:18:10;;;;;;;2.80;1.08;;;;;;;8.22;60.17;101903.03;5010820;28;20042;-71
2021/03/29 00:20:39;;;;;;;3.33;1.50;;;;;;;8.23;59.32;101908.19;5011386;28;20034;-71
2021/03/29 00:23:05;;;;;;;3.97;1.45;;;;;;;8.24;59.43;101907.25;5011566;28;20026;-70
2021/03/29 00:25:33;;;;;;;2.05;1.13;;;;;;;8.21;60.17;101909.25;5011257;28;20044;-70
2021/03/29 00:27:59;;;;;;;1.65;0.93;;;;;;;8.15;60.42;101907.88;5011016;28;20034;-70
2021/03/29 00:30:28;;;;;;;2.75;1.20;;;;;;;8.14;59.63;101905.34;4989779;28;20398;-70
2021/03/29 00:32:54;;;;;;;2.78;1.20;;;;;;;8.09;60.36;101906.47;5010223;28;20092;-71
2021/03/29 00:35:22;;;;;;;2.10;1.00;;;;;;;8.10;59.69;101912.59;5010432;28;20054;-70
2021/03/29 00:37:51;;;;;;;3.05;1.30;;;;;;;8.06;59.96;101911.97;5011234;28;20042;-71
2021/03/29 00:40:18;;;;;;;2.83;1.20;;;;;;;8.03;60.00;101913.94;5009411;28;20037;-70
2021/03/29 00:42:45;;;;;;;2.50;1.20;;;;;;;8.03;60.29;101916.56;5010997;28;20077;-71
2021/03/29 00:45:14;;;;;;;4.93;1.35;;;;;;;8.01;60.16;101915.84;5008587;28;20033;-70
2021/03/29 00:47:40;;;;;;;5.63;2.20;;;;;;;7.99;60.41;101909.84;5010355;28;20049;-70
2021/03/29 00:50:09;;;;;;;3.90;2.00;;;;;;;7.77;64.59;101911.25;5011371;28;20034;-71
2021/03/29 00:52:36;;;;;;;4.10;1.38;;;;;;;7.65;65.22;101910.25;5000548;28;20034;-70
2021/03/29 00:55:02;;;;;;;3.58;1.17;;;;;;;7.64;63.62;101907.69;5010636;28;20426;-70
2021/03/29 00:57:28;;;;;;;2.30;1.20;;;;;;;7.59;62.49;101912.41;4992840;28;20033;-70
2021/03/29 00:59:54;;;;;;;3.05;1.42;;;;;;;7.62;61.90;101912.22;5010424;28;20141;-70
2021/03/29 01:02:20;;;;;;;3.58;1.42;;;;;;;7.67;63.50;101923.28;4992967;28;20124;-71
2021/03/29 01:04:45;;;;;;;2.05;1.08;;;;;;;7.63;63.12;101912.13;5010072;28;20034;-70
2021/03/29 01:07:12;;;;;;;5.15;1.60;;;;;;;7.70;61.74;101923.13;4993517;28;20038;-70
2021/03/29 01:09:39;;;;;;;5.45;2.40;;;;;;;7.69;63.95;101918.78;5010487;28;20150;-70
2021/03/29 01:12:08;;;;;;;5.05;1.77;;;;;;;7.69;62.30;101920.56;4992835;28;20030;-71
2021/03/29 01:14:40;;;;;;;4.72;1.42;;;;;;;7.68;63.91;101925.00;4996465;28;20057;-71
2021/03/29 01:17:16;;;;;;;3.60;1.75;;;;;;;7.50;64.84;101931.44;4993576;28;20041;-70
2021/03/29 01:20:01;;;;;;;3.53;1.60;;;;;;;7.52;62.84;101917.22;4993576;28;20069;-70
2021/03/29 01:22:32;;;;;;;4.78;2.00;;;;;;;7.73;63.13;101932.59;5010940;28;20406;-71
2021/03/29 01:25:07;;;;;;;6.20;2.17;;;;;;;7.76;62.10;101933.22;5010408;28;20514;-70
2021/03/29 01:27:36;;;;;;;4.35;1.88;;;;;;;7.79;62.42;101925.13;5011177;28;20061;-70
2021/03/29 01:30:09;;;;;;;8.45;2.03;;;;;;;7.90;61.95;101924.44;5011041;28;20421;-70
2021/03/29 01:32:37;;;;;;;9.43;2.30;;;;;;;8.00;61.75;101922.88;5002949;28;20499;-70
2021/03/29 01:35:09;;;;;;;5.00;1.95;;;;;;;7.78;64.41;101918.19;5010643;28;20414;-70
2021/03/29 01:37:38;;;;;;;4.43;1.80;;;;;;;7.72;62.70;101920.38;4989717;28;20069;-70
2021/03/29 01:40:04;;;;;;;8.38;2.45;;;;;;;7.84;62.14;101925.69;4992680;28;20044;-71
2021/03/29 01:42:30;;;;;;;7.70;2.15;;;;;;;7.82;62.15;101924.94;4992359;28;20034;-70
2021/03/29 01:44:57;;;;;;;3.90;1.73;;;;;;;7.68;63.17;101926.78;4991973;28;20049;-70
2021/03/29 01:47:23;;;;;;;5.55;1.70;;;;;;;7.75;62.29;101926.28;5002145;28;20061;-71
2021/03/29 01:49:50;;;;;;;5.05;2.15;;;;;;;7.84;61.82;101923.06;4992072;28;20058;-70
2021/03/29 01:52:17;;;;;;;3.72;1.80;;;;;;;7.90;61.31;101923.59;5009019;28;20036;-71
2021/03/29 01:54:43;;;;;;;4.85;2.00;;;;;;;7.90;61.14;101923.59;5008791;28;20080;-70
2021/03/29 01:57:11;;;;;;;5.22;1.88;;;;;;;7.90;61.01;101934.13;5009697;28;20410;-71
2021/03/29 01:59:38;;;;;;;4.07;1.60;;;;;;;7.79;61.61;101927.75;4991284;28;20030;-70
2021/03/29 02:02:08;;;;;;;2.28;1.10;;;;;;;7.72;60.91;101929.09;4991988;28;20399;-70
2021/03/29 02:04:35;;;;;;;6.35;2.03;;;;;;;7.75;61.73;101933.34;5009558;28;20045;-71
2021/03/29 02:07:06;;;;;;;7.35;2.30;;;;;;;7.71;62.05;101929.22;5008154;28;20507;-70
2021/03/29 02:09:34;;;;;;;4.30;1.60;;;;;;;7.64;61.88;101918.22;4991979;28;20038;-70
2021/03/29 02:12:03;;;;;;;3.78;1.30;;;;;;;7.60;62.27;101925.50;5008513;28;20061;-70
2021/03/29 02:14:30;;;;;;;2.65;1.27;;;;;;;7.53;64.35;101916.31;4991715;28;20034;-70
2021/03/29 02:16:58;;;;;;;1.90;1.10;;;;;;;7.50;62.31;101913.00;4989179;28;20029;-70
2021/03/29 02:19:26;;;;;;;4.25;1.60;;;;;;;7.49;62.23;101914.81;4990882;28;20081;-70
2021/03/29 02:21:54;;;;;;;3.42;1.70;;;;;;;7.48;62.74;101912.25;5009201;28;20072;-70
2021/03/29 02:24:21;;;;;;;2.72;1.42;;;;;;;7.37;63.85;101919.06;4990805;28;20030;-71
2021/03/29 02:26:47;;;;;;;3.00;1.20;;;;;;;7.34;62.99;101915.75;5008831;28;20065;-71
2021/03/29 02:29:18;;;;;;;4.75;1.98;;;;;;;7.35;63.24;101923.56;4991480;28;20041;-71
2021/03/29 02:31:45;;;;;;;4.68;1.85;;;;;;;7.34;63.17;101921.00;5004844;28;20029;-68
2021/03/29 02:34:13;;;;;;;4.15;1.60;;;;;;;7.31;63.81;101929.94;4991060;28;20030;-71
2021/03/29 02:36:39;;;;;;;4.60;1.73;;;;;;;7.30;63.50;101928.28;5008668;28;20467;-70
2021/03/29 02:39:06;;;;;;;2.67;1.35;;;;;;;7.24;64.27;101923.38;5008626;28;20066;-70
2021/03/29 02:41:33;;;;;;;3.72;1.70;;;;;;;7.30;63.57;101919.53;5008830;28;20034;-70
2021/03/29 02:44:01;;;;;;;4.18;1.38;;;;;;;7.30;63.76;101925.63;5009788;28;20026;-70
2021/03/29 02:46:30;;;;;;;5.25;2.00;;;;;;;7.34;63.63;101927.16;4990006;28;20136;-71
2021/03/29 02:49:00;;;;;;;4.65;1.90;;;;;;;7.38;63.73;101919.88;4991227;28;20040;-70
2021/03/29 02:51:27;;;;;;;5.13;1.83;;;;;;;7.35;63.66;101926.19;4991112;28;20084;-70
2021/03/29 02:53:57;;;;;;;3.75;1.70;;;;;;;7.32;64.18;101926.41;4991184;28;20045;-70
2021/03/29 02:56:29;;;;;;;2.88;1.40;;;;;;;7.27;65.76;101928.47;5007622;28;20088;-69
2021/03/29 02:59:00;;;;;;;6.68;1.95;;;;;;;7.32;64.37;101928.19;4990981;28;20532;-70
2021/03/29 03:01:29;;;;;;;2.72;1.60;;;;;;;7.26;64.12;101926.75;5008433;28;20376;-70
2021/03/29 03:03:56;;;;;;;7.15;1.95;;;;;;;7.23;64.47;101924.34;4990698;28;20091;-71
2021/03/29 03:06:24;;;;;;;2.05;1.20;;;;;;;7.19;64.40;101925.44;4990058;28;20319;-70
2021/03/29 03:08:52;;;;;;;1.98;1.05;;;;;;;7.18;66.52;101922.00;5009064;28;20034;-70
2021/03/29 03:11:20;;;;;;;1.60;0.90;;;;;;;7.19;66.15;101928.09;4990916;28;20033;-70
2021/03/29 03:13:48;;;;;;;4.05;1.15;;;;;;;7.16;65.14;101923.88;4990893;28;20030;-70
2021/03/29 03:16:18;;;;;;;5.85;1.42;;;;;;;7.11;64.42;101910.16;4990857;28;20118;-71
2021/03/29 03:18:48;;;;;;;2.90;1.20;;;;;;;7.09;65.38;101919.09;4991492;28;20030;-70
2021/03/29 03:21:18;;;;;;;2.70;1.20;;;;;;;7.10;64.58;101918.13;4990414;28;20073;-71
2021/03/29 03:23:55;;;;;;;4.82;1.48;;;;;;;7.06;66.82;101925.38;5009145;28;20042;-71
2021/03/29 03:26:24;;;;;;;3.75;1.38;;;;;;;7.04;64.56;101919.38;5004018;28;20042;-71
2021/03/29 03:28:52;;;;;;;2.03;1.10;;;;;;;6.97;64.64;101918.88;5011401;28;20398;-71
2021/03/29 03:31:18;;;;;;;3.33;1.27;;;;;;;6.97;64.46;101920.69;5004652;28;20517;-70
2021/03/29 03:33:44;;;;;;;2.83;1.30;;;;;;;6.90;65.04;101922.84;4997960;28;20045;-70
2021/03/29 03:36:11;;;;;;;5.18;1.20;;;;;;;6.80;66.25;101929.59;5010699;28;20122;-71
2021/03/29 03:38:42;;;;;;;2.88;1.15;;;;;;;6.77;65.68;101932.44;5012150;28;20048;-71
2021/03/29 03:41:12;;;;;;;2.13;0.95;;;;;;;6.71;67.83;101924.91;5011962;28;20116;-70
2021/03/29 03:43:42;;;;;;;2.95;1.10;;;;;;;6.74;66.56;101929.97;5012343;28;20045;-70
2021/03/29 03:46:24;;;;;;;2.83;1.10;;;;;;;6.69;66.45;101927.59;5009223;28;20129;-71
2021/03/29 03:48:53;;;;;;;2.88;1.20;;;;;;;6.64;67.48;101928.81;4990535;28;20042;-70
2021/03/29 03:51:26;;;;;;;3.53;1.50;;;;;;;6.69;65.34;101924.97;5011116;28;20036;-70
2021/03/29 03:53:52;;;;;;;2.97;1.10;;;;;;;6.63;65.58;101921.91;4986293;28;20045;-70
2021/03/29 03:56:19;;;;;;;2.00;1.10;;;;;;;6.61;67.22;101926.38;4993097;28;20080;-71
2021/03/29 03:58:47;;;;;;;3.08;1.23;;;;;;;6.62;66.25;101920.19;5012018;28;20133;-71
2021/03/29 04:01:14;;;;;;;4.13;1.45;;;;;;;6.46;66.68;101923.75;4993590;28;20041;-70
2021/03/29 04:03:40;;;;;;;4.25;1.27;;;;;;;6.45;67.66;101929.91;5011117;28;20037;-70
2021/03/29 04:06:06;;;;;;;5.53;1.90;;;;;;;6.52;66.25;101923.34;5011210;28;20034;-71
2021/03/29 04:08:33;;;;;;;3.33;1.42;;;;;;;6.45;68.17;101935.16;5011461;28;20034;-71
2021/03/29 04:11:00;;;;;;;4.18;1.70;;;;;;;6.38;67.11;101928.59;5010926;28;20058;-70
2021/03/29 04:13:29;;;;;;;2.13;1.20;;;;;;;6.39;68.12;101925.03;5005838;28;20034;-70
2021/03/29 04:15:56;;;;;;;3.88;1.70;;;;;;;6.50;66.60;101919.97;5011267;28;20030;-70
2021/03/29 04:18:22;;;;;;;4.57;1.92;;;;;;;6.62;66.20;101920.19;5012059;28;20034;-70
2021/03/29 04:20:48;;;;;;;3.67;1.40;;;;;;;6.59;68.85;101929.94;5011138;28;20049;-71
2021/03/29 04:23:14;;;;;;;3.08;1.30;;;;;;;6.55;67.58;101925.81;5010725;28;20099;-70
2021/03/29 04:25:40;;;;;;;2.55;1.25;;;;;;;6.50;68.13;101937.53;4993510;28;20033;-70
2021/03/29 04:28:06;;;;;;;3.85;1.50;;;;;;;6.52;66.86;101925.16;5011273;28;20402;-71
2021/03/29 04:30:31;;;;;;;4.28;1.65;;;;;;;6.56;67.31;101934.56;4992758;28;20030;-70
2021/03/29 04:32:57;;;;;;;3.33;1.65;;;;;;;6.45;68.76;101932.53;5011624;28;20475;-71
2021/03/29 04:35:23;;;;;;;3.97;1.30;;;;;;;6.42;67.14;101937.97;5011408;28;20062;-70
2021/03/29 04:37:53;;;;;;;5.68;1.67;;;;;;;6.46;67.60;101926.38;5011913;28;20045;-70
2021/03/29 04:40:21;;;;;;;2.88;1.30;;;;;;;6.43;68.36;101934.41;5009354;28;20068;-71
2021/03/29 04:42:46;;;;;;;3.13;1.58;;;;;;;6.36;67.47;101940.97;5011093;28;20083;-70
2021/03/29 04:45:12;;;;;;;5.15;1.90;;;;;;;6.43;66.77;101933.56;5010938;28;20124;-70
2021/03/29 04:47:38;;;;;;;5.13;1.88;;;;;;;6.48;66.62;101937.59;5010913;28;20077;-70
2021/03/29 04:50:05;;;;;;;5.80;2.10;;;;;;;6.35;68.46;101944.53;5011098;28;20069;-71
2021/03/29 04:52:31;;;;;;;4.40;1.58;;;;;;;6.35;69.49;101953.25;5010536;28;20063;-70
2021/03/29 04:54:56;;;;;;;3.53;1.50;;;;;;;6.40;67.44;101954.78;5010393;28;20520;-70
2021/03/29 04:57:21;;;;;;;6.60;2.20;;;;;;;6.50;67.32;101955.91;4992647;28;20053;-70
2021/03/29 04:59:47;;;;;;;6.78;2.17;;;;;;;6.51;67.09;101957.63;5011154;28;20030;-71
2021/03/29 05:02:12;;;;;;;5.03;1.85;;;;;;;6.52;67.10;101956.69;5010067;28;20410;-71
2021/03/29 05:04:37;;;;;;;6.72;1.98;;;;;;;6.58;66.26;101956.34;5009472;28;20057;-71
2021/03/29 05:07:10;;;;;;;4.60;1.85;;;;;;;6.75;65.80;101960.59;5009199;28;20038;-70
2021/03/29 05:09:35;;;;;;;4.68;1.60;;;;;;;6.84;65.76;101965.28;5010072;28;20441;-71
2021/03/29 05:12:09;;;;;;;6.32;2.20;;;;;;;6.98;65.23;101961.81;5009066;28;20127;-71
2021/03/29 05:14:36;;;;;;;8.07;2.33;;;;;;;7.10;64.62;101974.22;5008962;28;20030;-71
2021/03/29 05:17:01;;;;;;;6.15;2.45;;;;;;;7.15;64.50;101969.53;4992712;28;20502;-71
2021/03/29 05:19:27;;;;;;;5.88;2.00;;;;;;;7.24;63.91;101970.72;5010712;28;20041;-70
2021/03/29 05:21:52;;;;;;;6.75;1.85;;;;;;;7.32;63.69;101972.91;5010250;28;20045;-71
2021/03/29 05:24:17;;;;;;;5.60;1.90;;;;;;;7.42;63.09;101976.66;5009070;28;20117;-71
2021/03/29 05:26:43;;;;;;;6.88;2.53;;;;;;;7.56;61.93;101979.28;5008572;28;20045;-71
2021/03/29 05:29:08;;;;;;;5.35;2.20;;;;;;;7.72;61.57;101979.13;5009698;28;20046;-70
2021/03/29 05:31:39;;;;;;;6.18;2.45;;;;;;;7.86;61.09;101975.63;4992209;28;20072;-71
2021/03/29 05:34:05;;;;;;;6.88;2.25;;;;;;;7.98;60.31;101985.34;4992027;28;20440;-70
2021/03/29 05:36:31;;;;;;;3.95;2.00;;;;;;;8.13;60.17;101995.84;5009195;28;20036;-71
2021/03/29 05:38:56;;;;;;;4.88;2.50;;;;;;;8.22;59.63;101998.75;5010074;28;20117;-71
2021/03/29 05:41:22;;;;;;;6.43;2.35;;;;;;;8.32;59.20;102003.41;5009557;28;20045;-70
2021/03/29 05:43:48;;;;;;;8.38;2.78;;;;;;;8.45;58.89;102009.59;5002386;28;20081;-71
2021/03/29 05:46:14;;;;;;;7.35;2.40;;;;;;;8.49;59.05;102011.09;5009114;28;20038;-71
2021/03/29 05:48:40;;;;;;;5.95;2.30;;;;;;;8.55;58.78;102015.94;5009906;28;20072;-71
2021/03/29 05:51:09;;;;;;;8.90;2.58;;;;;;;8.64;58.16;102015.34;5009685;28;20479;-70
2021/03/29 05:53:35;;;;;;;6.88;2.47;;;;;;;8.69;58.56;102018.50;5007986;28;20092;-71
2021/03/29 05:56:01;;;;;;;6.05;2.75;;;;;;;8.76;57.86;102012.81;5008754;28;20042;-70
2021/03/29 06:00:54;;;;;;;6.50;2.83;;;;;;;8.88;57.22;102019.91;5009737;28;20057;-70
2021/03/29 06:03:33;;;;;;;7.82;2.75;;;;;;;9.02;56.93;102018.97;5008605;28;20037;-71
2021/03/29 06:06:12;;;;;;;6.72;2.33;;;;;;;9.32;56.08;102032.69;5004796;28;20034;-70
2021/03/29 06:08:42;;;;;;;7.47;2.67;;;;;;;9.62;55.49;102035.94;5009267;28;20370;-71
2021/03/29 06:11:22;;;;;;;6.57;2.50;;;;;;;9.72;54.21;102029.88;4990538;28;20538;-71
2021/03/29 06:14:05;;;;;;;5.22;2.85;;;;;;;10.14;53.24;102032.19;5009046;28;20403;-70
2021/03/29 06:16:30;;;;;;;4.53;2.40;;;;;;;10.57;52.48;102034.34;5009572;28;20093;-71
2021/03/29 06:18:56;;;;;;;5.75;2.40;;;;;;;10.98;50.96;102036.47;5009577;28;20030;-70
2021/03/29 06:21:21;;;;;;;7.70;2.95;;;;;;;11.08;51.00;102044.56;5009291;28;20056;-70
2021/03/29 06:23:59;;;;;;;6.00;2.55;;;;;;;11.37;50.13;102042.34;5002816;28;20561;-71
2021/03/29 06:26:29;;;;;;;5.90;2.55;;;;;;;11.62;49.33;102041.22;4990701;28;20371;-71
2021/03/29 06:28:54;;;;;;;5.75;2.90;;;;;;;11.80;48.19;102036.28;4992074;28;20061;-71
2021/03/29 06:31:31;;;;;;;5.07;2.35;;;;;;;11.64;49.17;102039.31;5009856;28;20088;-70
2021/03/29 06:33:58;;;;;;;5.45;2.10;;;;;;;11.55;49.51;102042.69;5009754;28;20126;-70
2021/03/29 06:36:35;;;;;;;6.88;2.60;;;;;;;12.06;48.81;102043.97;5006302;28;20042;-70
2021/03/29 06:39:12;;;;;;;4.97;2.90;;;;;;;12.41;46.49;102040.25;5007918;28;20029;-71
2021/03/29 06:41:38;;;;;;;5.03;2.47;;;;;;;12.54;46.54;102044.41;5006793;28;20088;-71
2021/03/29 06:44:04;;;;;;;8.68;2.45;;;;;;;13.25;45.44;102049.09;4985606;28;20117;-70
2021/03/29 06:46:30;;;;;;;6.43;2.38;;;;;;;13.65;43.93;102055.44;5009304;28;20133;-71
2021/03/29 06:48:58;;;;;;;7.10;2.75;;;;;;;13.68;44.51;102057.81;5010085;28;20044;-71
2021/03/29 06:51:26;;;;;;;5.35;2.30;;;;;;;13.91;42.94;102058.47;5009555;28;20402;-71
2021/03/29 06:53:55;;;;;;;6.90;2.20;;;;;;;13.97;42.56;102060.59;5010524;28;20398;-70
2021/03/29 06:56:20;;;;;;;5.95;2.38;;;;;;;14.11;42.89;102059.31;5009169;28;20034;-70
2021/03/29 06:58:46;;;;;;;5.10;2.20;;;;;;;14.60;40.01;102063.75;5010267;28;20576;-71
2021/03/29 07:01:20;;;;;;;4.63;2.15;;;;;;;14.78;39.88;102068.38;5009910;28;20038;-71
2021/03/29 07:03:47;;;;;;;7.60;2.63;;;;;;;15.45;39.22;102066.53;4992638;28;20042;-71
2021/03/29 07:06:17;;;;;;;4.07;2.00;;;;;;;15.47;37.81;102065.41;4994690;28;20046;-71
2021/03/29 07:08:46;;;;;;;4.40;2.08;;;;;;;15.95;38.56;102074.19;5013474;28;20037;-71
2021/03/29 07:11:13;;;;;;;5.07;2.40;;;;;;;16.24;37.52;102065.16;5012180;28;20151;-71
2021/03/29 07:13:40;;;;;;;5.55;2.30;;;;;;;16.51;36.58;102078.44;5013510;28;20088;-71
2021/03/29 07:16:06;;;;;;;5.20;2.17;;;;;;;16.96;36.73;102082.03;5012392;28;20084;-71
2021/03/29 07:18:33;;;;;;;5.50;2.10;;;;;;;17.26;35.99;102075.38;5013979;28;20033;-71
2021/03/29 07:20:59;;;;;;;5.93;2.50;;;;;;;18.01;34.12;102083.59;5012621;28;20038;-71
2021/03/29 07:23:25;;;;;;;4.45;1.95;;;;;;;18.05;34.16;102078.78;5013403;28;20445;-71
2021/03/29 07:25:51;;;;;;;7.05;2.53;;;;;;;18.24;32.82;102078.47;5013314;28;20038;-71
2021/03/29 07:28:20;;;;;;;4.90;2.00;;;;;;;17.04;33.98;102079.44;5014017;28;20044;-71
2021/03/29 07:30:48;;;;;;;5.68;1.98;;;;;;;16.39;35.47;102071.66;5013609;28;20034;-71
2021/03/29 07:33:18;;;;;;;6.18;2.58;;;;;;;15.96;36.29;102077.69;5013362;28;20081;-69
2021/03/29 07:35:50;;;;;;;7.20;1.60;;;;;;;15.47;37.74;102076.06;5013015;28;20061;-71
2021/03/29 07:38:16;;;;;;;4.40;1.88;;;;;;;15.15;37.31;102083.59;5012648;28;20033;-71
2021/03/29 07:40:44;;;;;;;3.95;2.13;;;;;;;15.12;37.47;102091.88;5012964;28;20088;-71
2021/03/29 07:43:13;;;;;;;4.32;1.70;;;;;;;15.20;37.79;102089.34;5013597;28;20038;-71
2021/03/29 07:45:40;;;;;;;3.50;1.67;;;;;;;15.83;38.05;102097.56;5013102;28;20042;-72
2021/03/29 07:48:07;;;;;;;4.53;1.98;;;;;;;16.80;35.84;102097.91;5013490;28;20038;-72
2021/03/29 07:50:32;;;;;;;4.18;1.90;;;;;;;17.34;35.11;102096.81;5012992;28;20069;-71
2021/03/29 07:53:00;;;;;;;3.60;2.03;;;;;;;18.08;33.67;102099.03;5013438;28;20053;-71
2021/03/29 07:55:26;;;;;;;3.75;2.00;;;;;;;18.53;32.83;102106.66;5012192;28;20281;-71
2021/03/29 07:57:52;;;;;;;4.03;1.90;;;;;;;18.59;32.36;102102.47;5012734;28;20036;-70
2021/03/29 08:00:24;;;;;;;5.43;1.98;;;;;;;19.00;31.62;102102.50;5011464;28;20046;-70
2021/03/29 08:02:50;;;;;;;3.55;1.70;;;;;;;19.33;30.93;102106.00;4994616;28;20121;-70
2021/03/29 08:05:34;;;;;;;6.10;2.03;;;;;;;19.42;30.97;102110.31;5011679;28;20518;-70
2021/03/29 08:08:02;;;;;;;5.60;1.60;;;;;;;19.77;30.00;102104.72;5012219;28;20246;-70
2021/03/29 08:11:04;;;;;;;5.75;2.03;;;;;;;20.65;28.72;102099.00;5011685;28;20034;-71
2021/03/29 08:13:35;;;;;;;4.65;2.00;;;;;;;20.35;27.87;102116.81;5011787;28;20046;-72
2021/03/29 08:16:04;;;;;;;;;;;;;;;20.27;28.87;102109.66;5011463;28;20124;-70
2021/03/29 08:19:05;;;;;;;3.72;1.80;;;;;;;20.46;28.45;102113.72;5011701;28;19936;-70
2021/03/29 08:21:49;;;;;;;4.78;2.25;;;;;;;20.39;28.08;102114.63;5011102;28;20092;-70
2021/03/29 08:24:22;;;;;;;5.95;2.00;;;;;;;20.36;27.98;102107.75;5011558;28;20034;-71
2021/03/29 08:26:49;;;;;;;4.30;1.92;;;;;;;20.65;28.15;102104.38;5011455;28;20048;-71
2021/03/29 08:29:21;;;;;;;4.43;2.05;;;;;;;20.86;28.02;102108.25;5011640;28;20034;-70
2021/03/29 08:32:15;;;;;;;5.40;1.85;;;;;;;20.81;28.07;102102.56;5011647;28;20033;-72
2021/03/29 08:34:57;;;;;;;6.18;2.20;;;;;;;21.28;27.05;102113.06;4992310;28;20454;-71
2021/03/29 08:37:55;;;;;;;5.63;1.88;;;;;;;21.26;26.81;102109.72;4992041;28;20038;-71
2021/03/29 08:40:24;;;;;;;6.22;2.17;;;;;;;21.19;27.37;102106.09;4950445;28;20038;-72
2021/03/29 08:42:52;;;;;;;6.82;1.85;;;;;;;21.35;27.23;102107.78;5012533;28;20085;-72
2021/03/29 08:45:21;;;;;;;6.22;2.13;;;;;;;21.49;26.31;102103.47;4993794;28;20120;-72
2021/03/29 08:47:48;;;;;;;4.70;2.25;;;;;;;21.56;26.77;102112.47;4994542;28;20487;-71
2021/03/29 08:50:19;;;;;;;4.65;2.00;;;;;;;21.77;26.41;102107.16;5011168;28;20038;-71
2021/03/29 08:52:52;;;;;;;4.55;2.03;;;;;;;21.76;26.29;102108.19;4994098;28;20033;-73
2021/03/29 08:55:21;;;;;;;7.32;2.15;;;;;;;22.04;25.56;102107.47;5011066;28;20034;-73
2021/03/29 08:57:51;;;;;;;4.15;1.75;;;;;;;22.25;25.93;102112.09;5011704;28;20034;-71
2021/03/29 09:00:20;;;;;;;4.55;1.90;;;;;;;22.25;26.07;102120.19;5010415;28;20041;-72
2021/03/29 09:02:47;;;;;;;4.10;1.83;;;;;;;22.68;25.45;102106.72;5011008;28;20448;-72
2021/03/29 09:05:14;;;;;;;5.63;2.20;;;;;;;22.96;24.38;102108.63;5010786;28;20405;-72
2021/03/29 09:07:42;;;;;;;5.57;1.70;;;;;;;22.74;25.26;102113.19;5011145;28;20096;-71
2021/03/29 09:10:15;;;;;;;5.20;2.08;;;;;;;23.03;25.14;102115.78;5009498;28;20498;-71
2021/03/29 09:12:42;;;;;;;4.43;1.60;;;;;;;23.18;24.65;102126.47;5011131;28;20184;-71
2021/03/29 09:15:16;;;;;;;5.70;1.90;;;;;;;23.24;24.74;102120.28;5010564;28;20034;-71
2021/03/29 09:17:42;;;;;;;8.60;2.00;;;;;;;23.27;24.43;102130.69;5010976;28;20034;-72
2021/03/29 09:20:22;;;;;;;5.60;2.30;;;;;;;23.17;24.17;102135.59;5010106;28;20030;-73
2021/03/29 09:22:47;;;;;;;6.57;2.05;;;;;;;23.21;24.40;102134.16;4993380;28;20506;-72
2021/03/29 09:25:20;;;;;;;5.93;1.90;;;;;;;23.03;24.92;102121.19;5010465;28;20309;-72
2021/03/29 09:27:47;;;;;;;4.85;1.88;;;;;;;23.50;24.25;102125.03;4993075;28;20060;-72
2021/03/29 09:30:13;;;;;;;4.60;1.95;;;;;;;23.13;24.48;102125.41;5010071;28;20392;-74
2021/03/29 09:32:42;;;;;;;5.78;2.03;;;;;;;23.05;24.86;102121.00;5010628;28;20142;-71
2021/03/29 09:35:08;;;;;;;6.85;2.38;;;;;;;22.80;24.87;102123.22;5010258;28;20052;-72
2021/03/29 09:37:34;;;;;;;3.90;1.88;;;;;;;22.62;25.91;102116.44;5010468;28;20038;-74
2021/03/29 09:40:03;;;;;;;5.10;2.40;;;;;;;21.74;26.34;102118.31;4992570;28;20432;-71
2021/03/29 09:42:45;;;;;;;4.13;2.47;;;;;;;21.50;27.02;102115.88;5009865;28;20034;-71
2021/03/29 09:45:21;;;;;;;4.68;1.98;;;;;;;21.83;26.85;102119.03;4992340;28;20034;-72
2021/03/29 09:47:58;;;;;;;5.03;2.22;;;;;;;21.60;26.51;102119.97;5010262;28;20149;-71
2021/03/29 09:50:38;;;;;;;4.95;2.00;;;;;;;20.78;28.36;102118.06;5009611;28;20625;-72
2021/03/29 09:53:07;;;;;;;5.75;2.00;;;;;;;20.98;28.85;102110.31;5010326;28;20145;-71
2021/03/29 09:55:42;;;;;;;7.22;2.20;;;;;;;21.36;27.83;102112.97;5009353;28;20030;-73
2021/03/29 09:58:27;;;;;;;7.82;2.28;;;;;;;21.06;28.28;102114.78;5009940;28;20034;-71
2021/03/29 10:00:55;;;;;;;6.60;2.17;;;;;;;20.96;28.38;102111.53;5010556;28;20068;-72
2021/03/29 10:03:22;;;;;;;7.80;2.35;;;;;;;20.55;28.83;102118.06;5010331;28;20407;-71
2021/03/29 10:05:49;;;;;;;4.68;1.90;;;;;;;20.33;29.17;102108.94;5009225;28;20034;-72
2021/03/29 10:08:31;;;;;;;5.13;1.90;;;;;;;20.45;28.97;102119.28;5009736;28;20125;-72
2021/03/29 10:11:08;;;;;;;4.15;1.73;;;;;;;20.17;29.18;102111.72;5009219;28;20032;-73
2021/03/29 10:13:43;;;;;;;4.70;1.70;;;;;;;19.96;29.86;102106.13;4990468;28;20034;-71
2021/03/29 10:16:27;;;;;;;4.55;1.88;;;;;;;19.92;29.80;102102.94;5008570;28;20173;-75
2021/03/29 10:19:05;;;;;;;4.43;2.00;;;;;;;19.83;29.61;102104.00;5008468;28;20125;-73
2021/03/29 10:21:32;;;;;;;5.78;1.73;;;;;;;19.87;30.10;102110.69;5007843;28;20041;-74
2021/03/29 10:24:16;;;;;;;4.93;1.98;;;;;;;19.70;30.59;102096.50;5009176;28;20387;-70
2021/03/29 10:27:01;;;;;;;4.35;1.92;;;;;;;19.61;30.44;102103.72;5010065;28;20046;-71
2021/03/29 10:29:35;;;;;;;5.50;1.60;;;;;;;19.02;31.02;102098.66;5009869;28;20081;-70
2021/03/29 10:32:12;;;;;;;6.47;1.90;;;;;;;19.23;30.61;102099.94;5008361;28;20040;-74
2021/03/29 10:34:39;;;;;;;6.88;1.90;;;;;;;19.18;30.84;102099.63;5009276;28;20041;-73
2021/03/29 10:37:07;;;;;;;7.15;1.77;;;;;;;18.85;32.63;102105.88;5009291;28;20038;-70
2021/03/29 10:39:32;;;;;;;4.10;1.50;;;;;;;18.77;31.92;102105.03;5013315;28;20113;-70
2021/03/29 10:41:57;;;;;;;8.98;1.88;;;;;;;18.91;31.46;102114.25;5014192;28;20112;-71
2021/03/29 10:44:23;;;;;;;5.35;1.80;;;;;;;18.97;31.72;102100.16;5012627;28;20041;-71
2021/03/29 10:46:48;;;;;;;3.70;1.73;;;;;;;18.98;31.13;102099.16;4995341;28;20103;-70
2021/03/29 10:49:14;;;;;;;5.40;1.80;;;;;;;19.04;30.86;102090.44;5013608;28;20026;-70
2021/03/29 10:51:39;;;;;;;6.75;1.80;;;;;;;18.98;31.12;102096.47;4996157;28;20109;-70
2021/03/29 10:54:05;;;;;;;4.75;1.70;;;;;;;19.06;31.31;102099.16;5013587;28;20494;-72
2021/03/29 10:56:30;;;;;;;4.65;1.42;;;;;;;18.96;31.35;102093.13;5013819;28;20483;-70
2021/03/29 10:58:56;;;;;;;4.43;1.40;;;;;;;18.95;31.19;102097.66;4996630;28;20073;-70
2021/03/29 11:01:21;;;;;;;5.03;1.63;;;;;;;19.19;31.06;102091.44;5013405;28;20038;-70
2021/03/29 11:03:46;;;;;;;4.95;1.75;;;;;;;19.40;31.20;102100.75;5014160;28;20502;-70
2021/03/29 11:06:12;;;;;;;4.63;1.67;;;;;;;19.37;30.29;102088.53;4995191;28;20042;-70
2021/03/29 11:08:37;;;;;;;6.25;2.13;;;;;;;19.44;31.18;102086.00;5013811;28;20586;-70
2021/03/29 11:11:02;;;;;;;4.28;1.63;;;;;;;19.36;31.12;102084.19;5013609;28;20038;-69
2021/03/29 11:13:27;;;;;;;4.35;1.45;;;;;;;19.27;30.93;102075.31;5013829;28;20038;-70
2021/03/29 11:15:54;;;;;;;4.75;1.65;;;;;;;19.49;30.53;102078.25;5012776;28;20116;-72
2021/03/29 11:18:20;;;;;;;7.55;2.20;;;;;;;19.55;30.35;102071.38;5012645;28;20037;-73
2021/03/29 11:20:45;;;;;;;4.63;1.65;;;;;;;19.52;31.13;102072.53;5012441;28;20038;-70
2021/03/29 11:23:10;;;;;;;5.68;2.05;;;;;;;19.57;30.61;102064.84;5013064;28;20038;-70
2021/03/29 11:25:36;;;;;;;5.80;2.05;;;;;;;19.69;30.94;102070.69;5012533;28;20038;-71
2021/03/29 11:28:01;;;;;;;5.28;1.73;;;;;;;19.71;30.75;102066.81;5012391;28;20069;-72
2021/03/29 11:30:27;;;;;;;5.10;1.63;;;;;;;19.75;30.06;102064.59;5012858;28;20030;-70
2021/03/29 11:32:52;;;;;;;3.88;1.70;;;;;;;19.71;31.28;102056.09;5012735;28;20065;-70
2021/03/29 11:35:17;;;;;;;4.93;1.38;;;;;;;19.83;30.23;102069.97;5012264;28;20089;-70
2021/03/29 11:37:43;;;;;;;4.40;1.60;;;;;;;19.80;30.16;102061.41;5012174;28;20045;-71
2021/03/29 11:40:11;;;;;;;6.70;1.33;;;;;;;19.88;29.92;102064.06;5011736;28;20490;-72